Copeland, Alabama
Current Conditions -  °F | °C
As of 6:58 AM on Thursday 27 Nov 2014 (Local Time) from KMEI Reporting Station
Clear Clear  
Wind Chill: 29°   Ceiling: Unl
Heat Index: 34°   Visibility: 10mi
Dew Point: 30°   Wind: 6mph
Humidity: 85%   Direction: 340°NNW
Pressure: 30.4"   Gusts: NA
Location:  31.6272°N, 88.354°W
Report Text: KMEI 271258Z 34005KT 10SM CLR 01/M01 A3040 RMK AO2 SLP293 T00111011
Loading
Personal Weather Stations






























Interactive Weather Map New forecast layout! Learn more

10-Day Weather Forecast

Advertisements
Track Severe Weather on mobile